Terminal Aerodrome Forecast
Issued by NWS Louisville, KY

Home | Current Version | Previous Version | Text Only | Print | Product List | Glossary On
Versions: 1 2 3 4 5 6 7 8 9 10 11 12
953
FTUS43 KLMK 072323
TAFLEX
TAF
KLEX 072323Z 0800/0824 19008KT P6SM BKN100
     FM080700 22006KT 6SM -SHRA BR OVC030
     FM081100 24008KT P6SM VCSH OVC021
     FM081800 27011G17KT 5SM -RASN BR OVC018=

USA.gov is the U.S. government's official web portal to all federal, state and local government web resources and services.